Time;durP1;ratioP1;P1;durP2;ratioP2;P2;SDS_P1;SDS_P2;PMS_P1;PMS_P2;Temp;Humidity;BMP_temperature;BMP_pressure;BME280_temperature;BME280_humidity;BME280_pressure;Samples;Min_cycle;Max_cycle;Signal;HPM_P1;HPM_P2
2022/12/05 00:01:20;;;;;;;;;;;29.50;88.50;;;;;;5089122;28;19917;-71
2022/12/05 00:03:47;;;;;;;;;;;29.70;88.50;;;;;;5083596;28;19916;-71
2022/12/05 00:06:14;;;;;;;;;;;29.90;89.10;;;;;;5112391;27;20260;-73
2022/12/05 00:08:41;;;;;;;;;;;30.10;87.20;;;;;;5092986;28;20370;-72
2022/12/05 00:11:12;;;;;;;;;;;30.30;86.70;;;;;;5092342;28;19916;-75
2022/12/05 00:13:39;;;;;;;;;;;30.30;85.30;;;;;;5085507;28;20419;-69
2022/12/05 00:16:08;;;;;;;;;;;30.40;84.90;;;;;;5077548;28;20012;-73
2022/12/05 00:18:35;;;;;;;;;;;30.60;84.50;;;;;;5080716;28;19932;-71
2022/12/05 00:21:01;;;;;;;;;;;31.00;85.60;;;;;;5078061;28;19916;-73
2022/12/05 00:23:28;;;;;;;;;;;31.20;84.00;;;;;;5086613;28;20359;-73
2022/12/05 00:25:55;;;;;;;;;;;31.30;82.60;;;;;;5075422;28;19920;-72
2022/12/05 00:28:21;;;;;;;;;;;31.10;81.90;;;;;;5087062;28;19927;-72
2022/12/05 00:30:48;;;;;;;;;;;31.10;81.20;;;;;;5082331;28;20327;-72
2022/12/05 00:33:14;;;;;;;;;;;31.00;81.90;;;;;;5078912;28;20359;-73
2022/12/05 00:35:42;;;;;;;;;;;31.10;82.50;;;;;;5085873;28;19928;-73
2022/12/05 00:38:08;;;;;;;;;;;31.40;81.60;;;;;;5086381;28;20457;-72
2022/12/05 00:40:35;;;;;;;;;;;31.60;82.10;;;;;;5079796;28;19908;-74
2022/12/05 00:43:05;;;;;;;;;;;31.80;81.30;;;;;;5090938;28;19923;-73
2022/12/05 00:45:32;;;;;;;;;;;31.90;80.70;;;;;;5085149;28;19912;-72
2022/12/05 00:47:59;;;;;;;;;;;32.20;81.20;;;;;;5076655;28;20024;-73
2022/12/05 00:50:26;;;;;;;;;;;32.40;81.20;;;;;;5087612;27;19919;-73
2022/12/05 00:52:52;;;;;;;;;;;32.70;82.70;;;;;;5083032;28;19916;-72
2022/12/05 00:55:19;;;;;;;;;;;33.10;79.70;;;;;;5083425;28;19919;-72
2022/12/05 00:57:46;;;;;;;;;;;33.10;80.50;;;;;;5085791;28;19912;-71
2022/12/05 01:00:12;;;;;;;;;;;33.20;79.60;;;;;;5074418;28;19916;-71
2022/12/05 01:02:39;;;;;;;;;;;33.00;80.00;;;;;;5085486;28;19919;-73
2022/12/05 01:05:06;;;;;;;;;;;33.10;80.40;;;;;;5083523;28;19912;-73
2022/12/05 01:07:32;;;;;;;;;;;33.40;80.10;;;;;;5085963;28;20382;-74
2022/12/05 01:09:59;;;;;;;;;;;33.70;80.10;;;;;;5087948;28;19954;-74
2022/12/05 01:12:27;;;;;;;;;;;34.00;78.80;;;;;;5081838;28;19923;-71
2022/12/05 01:14:53;;;;;;;;;;;34.00;78.30;;;;;;5088731;28;19912;-73
2022/12/05 01:17:20;;;;;;;;;;;33.50;78.20;;;;;;5076351;28;19978;-72
2022/12/05 01:19:47;;;;;;;;;;;33.40;79.00;;;;;;5078670;28;19918;-72
2022/12/05 01:22:13;;;;;;;;;;;33.50;78.60;;;;;;5080463;28;19959;-71
2022/12/05 01:24:40;;;;;;;;;;;33.70;79.10;;;;;;5079922;28;19916;-76
2022/12/05 01:27:07;;;;;;;;;;;33.90;77.90;;;;;;5075805;28;19995;-72
2022/12/05 01:29:33;;;;;;;;;;;34.10;78.90;;;;;;5083914;28;20274;-73
2022/12/05 01:32:00;;;;;;;;;;;34.30;78.10;;;;;;5078258;28;19951;-72
2022/12/05 01:34:27;;;;;;;;;;;34.40;77.40;;;;;;5082918;28;19920;-73
2022/12/05 01:36:54;;;;;;;;;;;34.50;77.10;;;;;;5088233;28;19927;-73
2022/12/05 01:39:21;;;;;;;;;;;34.40;77.90;;;;;;5076650;28;20274;-76
2022/12/05 01:41:48;;;;;;;;;;;34.40;77.50;;;;;;5076168;28;19916;-77
2022/12/05 01:44:15;;;;;;;;;;;34.60;76.60;;;;;;5081746;28;19916;-73
2022/12/05 01:46:47;;;;;;;;;;;35.00;77.90;;;;;;5085067;28;20263;-74
2022/12/05 01:49:19;;;;;;;;;;;35.30;76.40;;;;;;5078040;28;19920;-73
2022/12/05 01:51:46;;;;;;;;;;;35.60;76.20;;;;;;5082207;28;20015;-72
2022/12/05 01:54:14;;;;;;;;;;;35.70;75.60;;;;;;5087569;28;19912;-76
2022/12/05 01:56:42;;;;;;;;;;;36.00;75.30;;;;;;5081290;28;19978;-73
2022/12/05 01:59:10;;;;;;;;;;;36.00;74.10;;;;;;5084586;28;20006;-73
2022/12/05 02:01:37;;;;;;;;;;;36.00;74.30;;;;;;5077139;28;19920;-75
2022/12/05 02:04:05;;;;;;;;;;;36.20;73.40;;;;;;5072108;28;19917;-74
2022/12/05 02:06:32;;;;;;;;;;;36.00;74.60;;;;;;5076453;28;19920;-73
2022/12/05 02:08:59;;;;;;;;;;;36.10;75.60;;;;;;5071222;28;20012;-73
2022/12/05 02:11:27;;;;;;;;;;;36.10;74.20;;;;;;5077765;28;19912;-73
2022/12/05 02:14:00;;;;;;;;;;;36.10;74.20;;;;;;5075877;28;21575;-73
2022/12/05 02:16:42;;;;;;;;;;;35.90;74.80;;;;;;5085632;28;19971;-75
2022/12/05 02:19:09;;;;;;;;;;;35.90;74.10;;;;;;5083190;28;19970;-74
2022/12/05 02:21:54;;;;;;;;;;;36.20;76.10;;;;;;5072232;28;19917;-74
2022/12/05 02:24:46;;;;;;;;;;;36.50;74.50;;;;;;5082566;28;19993;-75
2022/12/05 02:27:31;;;;;;;;;;;36.80;72.90;;;;;;5079377;28;20354;-72
2022/12/05 02:30:07;;;;;;;;;;;36.70;72.60;;;;;;5074882;28;20021;-74
2022/12/05 02:32:59;;;;;;;;;;;36.70;72.70;;;;;;5071653;28;19912;-75
2022/12/05 02:35:32;;;;;;;;;;;36.80;72.10;;;;;;5090111;28;19930;-74
2022/12/05 02:38:10;;;;;;;;;;;36.90;72.40;;;;;;5072791;28;19917;-72
2022/12/05 02:40:37;;;;;;;;;;;37.10;71.70;;;;;;5087323;28;19916;-73
2022/12/05 02:43:08;;;;;;;;;;;37.20;72.70;;;;;;5087186;28;19931;-73
2022/12/05 02:45:36;;;;;;;;;;;37.00;72.30;;;;;;5077688;28;19916;-73
2022/12/05 02:48:03;;;;;;;;;;;37.00;72.50;;;;;;5085564;28;20397;-75
2022/12/05 02:50:34;;;;;;;;;;;37.20;71.90;;;;;;5080595;28;19949;-76
2022/12/05 02:53:07;;;;;;;;;;;37.40;72.30;;;;;;5082327;28;19966;-76
2022/12/05 02:55:34;;;;;;;;;;;37.60;72.30;;;;;;5078038;28;19958;-75
2022/12/05 02:58:04;;;;;;;;;;;37.70;71.30;;;;;;5072005;28;20349;-75
2022/12/05 03:00:31;;;;;;;;;;;37.90;71.40;;;;;;5073624;28;20396;-76
2022/12/05 03:02:58;;;;;;;;;;;38.10;70.40;;;;;;5072105;28;19995;-79
2022/12/05 03:05:37;;;;;;;;;;;37.70;69.70;;;;;;5088655;28;19912;-75
2022/12/05 03:08:06;;;;;;;;;;;37.20;70.20;;;;;;5075023;28;20025;-75
2022/12/05 03:10:33;;;;;;;;;;;37.10;70.90;;;;;;5090085;28;20010;-74
2022/12/05 03:13:03;;;;;;;;;;;37.00;70.10;;;;;;5087235;28;19923;-74
2022/12/05 03:15:32;;;;;;;;;;;37.20;69.30;;;;;;5088005;28;20354;-74
2022/12/05 03:18:12;;;;;;;;;;;37.30;70.00;;;;;;5083329;28;20881;-74
2022/12/05 03:20:47;;;;;;;;;;;37.50;70.70;;;;;;5077524;28;20016;-75
2022/12/05 03:23:25;;;;;;;;;;;37.70;68.70;;;;;;5087852;28;19922;-76
2022/12/05 03:25:52;;;;;;;;;;;37.70;70.00;;;;;;5089276;28;20332;-75
2022/12/05 03:28:37;;;;;;;;;;;37.70;68.80;;;;;;5089720;28;19947;-75
2022/12/05 03:31:08;;;;;;;;;;;37.50;67.80;;;;;;5083861;28;19920;-74
2022/12/05 03:33:37;;;;;;;;;;;37.00;68.30;;;;;;5084854;28;19935;-74
2022/12/05 03:36:04;;;;;;;;;;;36.80;69.60;;;;;;5086317;28;20975;-73
2022/12/05 03:38:34;;;;;;;;;;;37.00;70.20;;;;;;5074049;28;19923;-74
2022/12/05 03:41:19;;;;;;;;;;;37.40;70.30;;;;;;5079383;28;20011;-74
2022/12/05 03:43:51;;;;;;;;;;;37.60;69.30;;;;;;5094204;28;19920;-73
2022/12/05 03:46:32;;;;;;;;;;;37.90;70.50;;;;;;5087687;28;19912;-73
2022/12/05 03:49:06;;;;;;;;;;;38.20;69.80;;;;;;5079475;28;19919;-71
2022/12/05 03:51:53;;;;;;;;;;;38.30;69.20;;;;;;5079618;28;19947;-73
2022/12/05 03:54:28;;;;;;;;;;;37.70;67.90;;;;;;5075459;28;19936;-73
2022/12/05 03:56:59;;;;;;;;;;;37.30;68.20;;;;;;5075744;28;19920;-74
2022/12/05 03:59:29;;;;;;;;;;;37.10;69.70;;;;;;5085017;28;19927;-74
2022/12/05 04:01:57;;;;;;;;;;;37.40;68.50;;;;;;5074940;28;19936;-75
2022/12/05 04:04:46;;;;;;;;;;;37.20;67.70;;;;;;5071392;28;19912;-75
2022/12/05 04:07:14;;;;;;;;;;;36.60;68.10;;;;;;5085117;28;19922;-76
2022/12/05 04:09:46;;;;;;;;;;;36.20;69.10;;;;;;5075973;28;19989;-74
2022/12/05 04:12:16;;;;;;;;;;;35.90;69.10;;;;;;5085191;28;19937;-75
2022/12/05 04:14:45;;;;;;;;;;;35.90;69.80;;;;;;5081455;28;19920;-76
2022/12/05 04:17:34;;;;;;;;;;;35.90;70.30;;;;;;5086589;28;19924;-76
2022/12/05 04:22:56;;;;;;;;;;;35.70;69.80;;;;;;5073656;28;19923;-76
2022/12/05 04:25:33;;;;;;;;;;;35.50;69.90;;;;;;5078079;28;19959;-75
2022/12/05 04:28:02;;;;;;;;;;;35.40;70.00;;;;;;5089052;28;19923;-77
2022/12/05 04:30:40;;;;;;;;;;;35.10;69.30;;;;;;5082852;28;20012;-73
2022/12/05 04:33:16;;;;;;;;;;;34.80;69.80;;;;;;5092129;28;20054;-74
2022/12/05 04:35:47;;;;;;;;;;;34.50;70.20;;;;;;5092486;28;19927;-71
2022/12/05 04:38:26;;;;;;;;;;;34.30;70.90;;;;;;5087015;28;20331;-75
2022/12/05 04:41:03;;;;;;;;;;;34.10;72.50;;;;;;5089933;28;19924;-75
2022/12/05 04:43:32;;;;;;;;;;;33.60;76.90;;;;;;5081991;28;19923;-74
2022/12/05 04:46:00;;;;;;;;;;;32.80;81.80;;;;;;5075657;28;20157;-76
2022/12/05 04:48:27;;;;;;;;;;;32.00;82.00;;;;;;5075987;28;19919;-74
2022/12/05 04:50:55;;;;;;;;;;;31.30;82.50;;;;;;5080403;28;19912;-73
2022/12/05 04:53:24;;;;;;;;;;;31.00;81.30;;;;;;5082039;28;20016;-73
2022/12/05 04:55:53;;;;;;;;;;;31.20;82.90;;;;;;5071260;28;19928;-74
2022/12/05 04:58:25;;;;;;;;;;;31.80;81.30;;;;;;5078499;28;19913;-73
2022/12/05 05:00:52;;;;;;;;;;;32.30;81.40;;;;;;5071043;28;19912;-73
2022/12/05 05:03:24;;;;;;;;;;;32.60;79.60;;;;;;5080007;28;19912;-72
2022/12/05 05:05:52;;;;;;;;;;;32.90;78.10;;;;;;5091626;28;19919;-73
2022/12/05 05:08:20;;;;;;;;;;;33.10;78.20;;;;;;5080774;28;19934;-74
2022/12/05 05:11:10;;;;;;;;;;;33.40;77.30;;;;;;5083618;28;19999;-72
2022/12/05 05:13:37;;;;;;;;;;;33.70;76.80;;;;;;5083174;28;20344;-77
2022/12/05 05:16:04;;;;;;;;;;;33.80;76.40;;;;;;5078393;28;19927;-77
2022/12/05 05:18:31;;;;;;;;;;;33.80;75.00;;;;;;5086891;28;19956;-80
2022/12/05 05:20:58;;;;;;;;;;;33.80;74.50;;;;;;5085326;28;20353;-74
2022/12/05 05:23:28;;;;;;;;;;;33.70;73.70;;;;;;5087640;28;19916;-73
2022/12/05 05:25:55;;;;;;;;;;;33.50;73.60;;;;;;5108215;28;19908;-77
2022/12/05 05:28:22;;;;;;;;;;;33.30;72.90;;;;;;5074424;28;19923;-76
2022/12/05 05:30:49;;;;;;;;;;;33.10;73.80;;;;;;5083647;28;19940;-77
2022/12/05 05:33:16;;;;;;;;;;;33.20;73.00;;;;;;5078992;28;19916;-78
2022/12/05 05:35:42;;;;;;;;;;;33.50;72.60;;;;;;5079722;28;20499;-77
2022/12/05 05:38:09;;;;;;;;;;;33.70;72.10;;;;;;5084988;28;20462;-77
2022/12/05 05:40:36;;;;;;;;;;;33.80;72.00;;;;;;5090739;28;19951;-76
2022/12/05 05:43:03;;;;;;;;;;;34.00;72.10;;;;;;5087170;28;19973;-82
2022/12/05 05:45:29;;;;;;;;;;;34.20;71.40;;;;;;5083690;28;20375;-78
2022/12/05 05:47:56;;;;;;;;;;;34.20;69.40;;;;;;5084982;28;20263;-75
2022/12/05 05:50:23;;;;;;;;;;;34.30;70.10;;;;;;5085982;28;19967;-73
2022/12/05 05:52:50;;;;;;;;;;;34.50;70.40;;;;;;5083070;28;19988;-77
2022/12/05 05:55:16;;;;;;;;;;;34.40;69.70;;;;;;5078815;28;20007;-76
2022/12/05 05:57:43;;;;;;;;;;;34.30;69.70;;;;;;5087571;28;19974;-74
2022/12/05 06:00:10;;;;;;;;;;;34.50;70.30;;;;;;5112181;28;19958;-73
2022/12/05 06:02:37;;;;;;;;;;;34.70;70.90;;;;;;5093567;28;19918;-74
2022/12/05 06:05:04;;;;;;;;;;;34.80;70.10;;;;;;5085932;28;19919;-76
2022/12/05 06:07:30;;;;;;;;;;;34.70;70.10;;;;;;5077561;28;19924;-73
2022/12/05 06:09:57;;;;;;;;;;;34.70;69.30;;;;;;5080533;28;19957;-75
2022/12/05 06:12:24;;;;;;;;;;;34.70;69.30;;;;;;5078489;28;19913;-75
2022/12/05 06:14:51;;;;;;;;;;;34.50;69.90;;;;;;5089223;28;20425;-74
2022/12/05 06:17:18;;;;;;;;;;;34.70;69.60;;;;;;5089144;28;19927;-72
2022/12/05 06:19:44;;;;;;;;;;;34.70;71.00;;;;;;5077272;28;19913;-73
2022/12/05 06:22:11;;;;;;;;;;;34.30;73.70;;;;;;5076171;28;19927;-74
2022/12/05 06:24:38;;;;;;;;;;;33.80;75.20;;;;;;5071172;28;19919;-74
2022/12/05 06:27:05;;;;;;;;;;;33.50;76.60;;;;;;5081681;28;19920;-74
2022/12/05 06:29:31;;;;;;;;;;;33.00;78.60;;;;;;5090482;28;20388;-77
2022/12/05 06:31:58;;;;;;;;;;;32.70;79.80;;;;;;5083119;28;19965;-76
2022/12/05 06:34:25;;;;;;;;;;;32.50;80.30;;;;;;5080246;28;20329;-74
2022/12/05 06:36:51;;;;;;;;;;;32.30;81.00;;;;;;5084592;28;19929;-74
2022/12/05 06:39:18;;;;;;;;;;;32.40;81.30;;;;;;5087942;28;19912;-74
2022/12/05 06:41:45;;;;;;;;;;;32.50;81.50;;;;;;5086969;28;19943;-71
2022/12/05 06:44:11;;;;;;;;;;;32.50;82.10;;;;;;5082574;28;19976;-77
2022/12/05 06:46:38;;;;;;;;;;;32.50;81.80;;;;;;5084535;28;19923;-77
2022/12/05 06:49:05;;;;;;;;;;;32.40;82.30;;;;;;5073147;28;19916;-77
2022/12/05 06:51:31;;;;;;;;;;;32.30;81.30;;;;;;5086058;28;20313;-76
2022/12/05 06:53:58;;;;;;;;;;;32.20;80.70;;;;;;5084545;28;19912;-76
2022/12/05 06:56:25;;;;;;;;;;;32.10;81.20;;;;;;5086875;28;19999;-75
2022/12/05 06:58:52;;;;;;;;;;;32.00;81.10;;;;;;5087519;28;19916;-73
2022/12/05 07:01:39;;;;;;;;;;;31.80;79.90;;;;;;5082260;28;19992;-76
2022/12/05 07:04:16;;;;;;;;;;;31.80;81.40;;;;;;5072636;28;19913;-78
2022/12/05 07:06:48;;;;;;;;;;;31.50;82.50;;;;;;5080894;28;19932;-77
2022/12/05 07:09:14;;;;;;;;;;;31.30;82.20;;;;;;5073207;28;19927;-77
2022/12/05 07:11:41;;;;;;;;;;;31.10;83.40;;;;;;5077715;28;19916;-73
2022/12/05 07:14:10;;;;;;;;;;;31.00;83.70;;;;;;5087978;28;19950;-73
2022/12/05 07:16:37;;;;;;;;;;;30.80;83.90;;;;;;5082581;28;19920;-73
2022/12/05 07:19:04;;;;;;;;;;;30.60;84.70;;;;;;5069971;28;20331;-74
2022/12/05 07:21:30;;;;;;;;;;;30.50;84.70;;;;;;5069984;28;20355;-74
2022/12/05 07:23:57;;;;;;;;;;;30.40;85.20;;;;;;5084853;28;19912;-74
2022/12/05 07:26:24;;;;;;;;;;;30.30;84.90;;;;;;5077645;28;20401;-73
2022/12/05 07:28:51;;;;;;;;;;;30.20;85.00;;;;;;5085398;28;20011;-74
2022/12/05 07:31:20;;;;;;;;;;;30.10;85.40;;;;;;5089200;28;19912;-74
2022/12/05 07:33:48;;;;;;;;;;;30.00;85.90;;;;;;5088748;28;19923;-74
2022/12/05 07:36:15;;;;;;;;;;;29.90;86.20;;;;;;5075020;28;19924;-75
2022/12/05 07:38:42;;;;;;;;;;;29.90;86.20;;;;;;5085641;28;19966;-74
2022/12/05 07:41:11;;;;;;;;;;;29.90;86.20;;;;;;5089241;28;19912;-73
2022/12/05 07:43:38;;;;;;;;;;;29.80;86.20;;;;;;5089304;28;19920;-74
2022/12/05 07:46:05;;;;;;;;;;;29.80;86.10;;;;;;5090036;28;19939;-75
2022/12/05 07:48:32;;;;;;;;;;;29.70;86.00;;;;;;5077726;28;19912;-76
2022/12/05 07:51:00;;;;;;;;;;;29.70;86.30;;;;;;5075655;28;20014;-75
2022/12/05 07:53:27;;;;;;;;;;;29.50;86.60;;;;;;5083715;28;19940;-75
2022/12/05 07:55:54;;;;;;;;;;;29.50;86.50;;;;;;5073376;28;19927;-75
2022/12/05 07:58:20;;;;;;;;;;;29.50;86.80;;;;;;5072295;28;19920;-75
2022/12/05 08:00:47;;;;;;;;;;;29.50;86.70;;;;;;5081917;28;19924;-75
2022/12/05 08:03:14;;;;;;;;;;;29.50;86.80;;;;;;5090409;28;20426;-76
2022/12/05 08:05:40;;;;;;;;;;;29.40;87.40;;;;;;5078667;28;19920;-75
2022/12/05 08:08:07;;;;;;;;;;;29.40;87.90;;;;;;5089490;28;19924;-75
2022/12/05 08:10:34;;;;;;;;;;;29.30;88.10;;;;;;5093388;28;19916;-77
2022/12/05 08:13:01;;;;;;;;;;;29.30;88.30;;;;;;5084639;28;19966;-76
2022/12/05 08:15:27;;;;;;;;;;;29.20;88.30;;;;;;5074488;28;19916;-76
2022/12/05 08:17:54;;;;;;;;;;;29.20;88.90;;;;;;5090521;28;19924;-74
2022/12/05 08:20:21;;;;;;;;;;;29.10;88.80;;;;;;5079273;28;20252;-74
2022/12/05 08:22:51;;;;;;;;;;;29.00;89.40;;;;;;5080868;28;19916;-75
2022/12/05 08:25:17;;;;;;;;;;;28.90;89.80;;;;;;5076983;28;19912;-75
2022/12/05 08:27:44;;;;;;;;;;;28.90;89.90;;;;;;5080499;28;19920;-74
2022/12/05 08:30:11;;;;;;;;;;;28.80;90.10;;;;;;5090976;28;20027;-78
2022/12/05 08:32:37;;;;;;;;;;;28.60;90.30;;;;;;5078072;28;19947;-74
2022/12/05 08:35:04;;;;;;;;;;;28.50;90.60;;;;;;5085495;28;19943;-76
2022/12/05 08:37:31;;;;;;;;;;;28.30;90.80;;;;;;5078873;28;20363;-76
2022/12/05 08:39:57;;;;;;;;;;;28.20;91.00;;;;;;5076680;28;19935;-75
2022/12/05 08:42:24;;;;;;;;;;;28.10;91.10;;;;;;5081586;28;20267;-79
2022/12/05 08:44:51;;;;;;;;;;;28.10;91.00;;;;;;5073207;28;20036;-79
2022/12/05 08:47:17;;;;;;;;;;;28.00;91.20;;;;;;5082870;28;19916;-76
2022/12/05 08:49:44;;;;;;;;;;;27.90;91.40;;;;;;5098815;28;19909;-75
2022/12/05 08:52:11;;;;;;;;;;;27.80;91.70;;;;;;5079652;28;19924;-73
2022/12/05 08:54:38;;;;;;;;;;;27.70;91.70;;;;;;5092682;28;19913;-77
2022/12/05 08:57:04;;;;;;;;;;;27.60;92.00;;;;;;5089692;28;19947;-74
2022/12/05 08:59:31;;;;;;;;;;;27.50;92.30;;;;;;5085076;28;20060;-76
2022/12/05 09:01:58;;;;;;;;;;;27.20;92.60;;;;;;5081727;28;19916;-75
2022/12/05 09:04:24;;;;;;;;;;;27.10;93.00;;;;;;5087740;28;20279;-77
2022/12/05 09:06:51;;;;;;;;;;;27.00;93.30;;;;;;5081032;28;19952;-77
2022/12/05 09:09:18;;;;;;;;;;;26.90;93.10;;;;;;5077110;28;19913;-73
2022/12/05 09:11:49;;;;;;;;;;;26.80;93.20;;;;;;5080839;28;20011;-75
2022/12/05 09:14:16;;;;;;;;;;;26.70;93.90;;;;;;5073703;28;19916;-74
2022/12/05 09:16:44;;;;;;;;;;;26.50;94.70;;;;;;5079346;28;19919;-73
2022/12/05 09:19:15;;;;;;;;;;;26.20;95.90;;;;;;5079657;28;20239;-73
2022/12/05 09:21:42;;;;;;;;;;;25.80;96.80;;;;;;5085428;28;19916;-75
2022/12/05 09:24:09;;;;;;;;;;;25.50;97.40;;;;;;5092033;28;19916;-73
2022/12/05 09:26:36;;;;;;;;;;;25.30;98.30;;;;;;5090298;28;19923;-74
2022/12/05 09:29:03;;;;;;;;;;;25.10;98.60;;;;;;5073415;28;19908;-73
2022/12/05 09:31:29;;;;;;;;;;;24.90;98.90;;;;;;5074020;28;19919;-75
2022/12/05 09:33:56;;;;;;;;;;;24.80;99.40;;;;;;5087061;28;20427;-75
2022/12/05 09:36:24;;;;;;;;;;;24.80;99.90;;;;;;5084433;28;19920;-74
2022/12/05 09:38:51;;;;;;;;;;;24.70;99.90;;;;;;5078689;28;20011;-73
2022/12/05 09:42:03;;;;;;;;;;;24.60;99.90;;;;;;5080287;28;19999;-75
2022/12/05 09:44:12;;;;;;;;;;;24.50;99.90;;;;;;5090302;28;20320;-73
2022/12/05 09:46:56;;;;;;;;;;;24.40;99.90;;;;;;5086068;28;19919;-73
2022/12/05 09:49:24;;;;;;;;;;;24.40;99.90;;;;;;5085872;28;19920;-72
2022/12/05 09:51:53;;;;;;;;;;;24.40;99.90;;;;;;5077004;28;20006;-72
2022/12/05 09:54:21;;;;;;;;;;;24.30;99.90;;;;;;5074877;28;19912;-73
2022/12/05 09:56:49;;;;;;;;;;;24.30;99.90;;;;;;5083994;28;20053;-72
2022/12/05 09:59:15;;;;;;;;;;;24.30;99.90;;;;;;5087844;28;19916;-72
2022/12/05 10:01:49;;;;;;;;;;;24.20;99.90;;;;;;5084292;28;19916;-73
2022/12/05 10:04:22;;;;;;;;;;;24.20;99.90;;;;;;5072273;28;19965;-74
2022/12/05 10:07:03;;;;;;;;;;;24.20;99.90;;;;;;5071753;28;20530;-73
2022/12/05 10:09:34;;;;;;;;;;;24.20;99.90;;;;;;5073739;28;20386;-72
2022/12/05 10:12:10;;;;;;;;;;;24.20;99.90;;;;;;5083619;28;19923;-73
2022/12/05 10:14:46;;;;;;;;;;;24.10;99.90;;;;;;5078986;28;20035;-72
2022/12/05 10:17:22;;;;;;;;;;;24.10;99.90;;;;;;5079378;28;19920;-73
2022/12/05 10:19:49;;;;;;;;;;;24.00;99.90;;;;;;5077946;28;20069;-73
2022/12/05 10:22:38;;;;;;;;;;;23.90;99.90;;;;;;5080676;28;19931;-73
2022/12/05 10:25:06;;;;;;;;;;;23.80;99.90;;;;;;5071945;28;19923;-73
2022/12/05 10:27:37;;;;;;;;;;;23.70;99.90;;;;;;5071264;28;19916;-71
2022/12/05 10:30:06;;;;;;;;;;;23.60;99.90;;;;;;5109330;27;20065;-73
2022/12/05 10:32:39;;;;;;;;;;;23.50;99.90;;;;;;5080864;28;20358;-72
2022/12/05 10:35:24;;;;;;;;;;;23.40;99.90;;;;;;5097960;28;20012;-73
2022/12/05 10:37:52;;;;;;;;;;;23.40;99.90;;;;;;5077091;28;19934;-75
2022/12/05 10:40:19;;;;;;;;;;;23.30;99.90;;;;;;5070764;28;20377;-74
2022/12/05 10:42:47;;;;;;;;;;;23.30;99.90;;;;;;5070754;28;19912;-73
2022/12/05 10:45:15;;;;;;;;;;;23.30;99.90;;;;;;5088679;28;19916;-74
2022/12/05 10:47:42;;;;;;;;;;;23.20;99.90;;;;;;5078425;28;20267;-74
2022/12/05 10:50:50;;;;;;;;;;;23.20;99.90;;;;;;5072232;28;20370;-72
2022/12/05 10:53:23;;;;;;;;;;;23.10;99.90;;;;;;5066241;28;19919;-72
2022/12/05 10:55:52;;;;;;;;;;;23.00;99.90;;;;;;5067453;28;19961;-74
2022/12/05 10:58:24;;;;;;;;;;;22.90;99.90;;;;;;5070727;28;19916;-74
2022/12/05 11:00:52;;;;;;;;;;;22.80;99.90;;;;;;5077941;28;19912;-73
2022/12/05 11:03:36;;;;;;;;;;;22.70;99.90;;;;;;5080996;28;19912;-74
2022/12/05 11:06:14;;;;;;;;;;;22.70;99.90;;;;;;5094297;28;19920;-74
2022/12/05 11:08:41;;;;;;;;;;;22.70;99.90;;;;;;5087302;28;19912;-72
2022/12/05 11:11:13;;;;;;;;;;;22.70;99.90;;;;;;5076247;28;20016;-73
2022/12/05 11:13:50;;;;;;;;;;;22.70;99.90;;;;;;5080201;28;19923;-72
2022/12/05 11:16:28;;;;;;;;;;;22.60;99.90;;;;;;5084155;28;19931;-73
2022/12/05 11:18:54;;;;;;;;;;;22.50;99.90;;;;;;5079985;28;19913;-72
2022/12/05 11:21:21;;;;;;;;;;;22.30;99.90;;;;;;5090661;28;20350;-73
2022/12/05 11:23:48;;;;;;;;;;;22.20;99.90;;;;;;5083477;28;19960;-73
2022/12/05 11:26:33;;;;;;;;;;;22.10;99.90;;;;;;5075771;28;19916;-74
2022/12/05 11:28:59;;;;;;;;;;;22.10;99.90;;;;;;5073505;28;19912;-73
2022/12/05 11:31:27;;;;;;;;;;;22.00;99.90;;;;;;5080306;28;19916;-74
2022/12/05 11:34:02;;;;;;;;;;;21.90;99.90;;;;;;5078036;28;19912;-73
2022/12/05 11:36:43;;;;;;;;;;;21.80;99.90;;;;;;5082622;28;20352;-73
2022/12/05 11:39:13;;;;;;;;;;;21.70;99.90;;;;;;5085537;28;19919;-74
2022/12/05 11:41:52;;;;;;;;;;;21.70;99.90;;;;;;5078928;28;19916;-74
2022/12/05 11:44:22;;;;;;;;;;;21.60;99.90;;;;;;5074158;28;20282;-74
2022/12/05 11:46:54;;;;;;;;;;;21.50;99.90;;;;;;5087632;28;20369;-75
2022/12/05 11:49:39;;;;;;;;;;;21.50;99.90;;;;;;5087111;28;19961;-73
2022/12/05 11:52:14;;;;;;;;;;;21.50;99.90;;;;;;5085319;28;20374;-74
2022/12/05 11:54:49;;;;;;;;;;;21.50;99.90;;;;;;5086355;28;19965;-73
2022/12/05 11:57:34;;;;;;;;;;;21.40;99.90;;;;;;5076108;28;19920;-73
2022/12/05 12:00:00;;;;;;;;;;;21.40;99.90;;;;;;5076182;28;19919;-74
2022/12/05 12:02:50;;;;;;;;;;;21.40;99.90;;;;;;5089023;28;20400;-73
2022/12/05 12:05:35;;;;;;;;;;;21.30;99.90;;;;;;5081516;28;19912;-73
2022/12/05 12:08:08;;;;;;;;;;;21.20;99.90;;;;;;5089766;28;19986;-73
2022/12/05 12:10:53;;;;;;;;;;;21.20;99.90;;;;;;5079384;28;19919;-73
2022/12/05 12:13:38;;;;;;;;;;;21.20;99.90;;;;;;5077234;28;20286;-73
2022/12/05 12:16:23;;;;;;;;;;;21.20;99.90;;;;;;5079383;28;19956;-73
2022/12/05 12:19:01;;;;;;;;;;;21.10;99.90;;;;;;5088686;28;19916;-74
2022/12/05 12:21:40;;;;;;;;;;;21.10;99.90;;;;;;5086943;28;20294;-74
2022/12/05 12:24:17;;;;;;;;;;;21.10;99.90;;;;;;5087342;28;19916;-73
2022/12/05 12:26:44;;;;;;;;;;;21.10;99.90;;;;;;5083529;28;20274;-73
2022/12/05 12:29:11;;;;;;;;;;;21.10;99.90;;;;;;5092469;28;19915;-72
2022/12/05 12:31:55;;;;;;;;;;;21.10;99.90;;;;;;5078616;28;20007;-73
2022/12/05 12:34:34;;;;;;;;;;;21.00;99.90;;;;;;5084011;28;19923;-73
2022/12/05 12:37:26;;;;;;;;;;;21.00;99.90;;;;;;5081404;28;19924;-74
2022/12/05 12:40:02;;;;;;;;;;;21.00;99.90;;;;;;5081283;28;19912;-74
2022/12/05 12:42:36;;;;;;;;;;;21.00;99.90;;;;;;5088068;28;20362;-73
2022/12/05 12:45:12;;;;;;;;;;;20.90;99.90;;;;;;5079328;28;20403;-73
2022/12/05 12:47:51;;;;;;;;;;;20.90;99.90;;;;;;5085563;28;20279;-72
2022/12/05 12:50:20;;;;;;;;;;;20.90;99.90;;;;;;5087485;28;20833;-73
2022/12/05 12:52:50;;;;;;;;;;;20.90;99.90;;;;;;5078424;28;20048;-74
2022/12/05 12:55:18;;;;;;;;;;;20.90;99.90;;;;;;5092115;28;19924;-73
2022/12/05 12:58:03;;;;;;;;;;;20.90;99.90;;;;;;5079497;28;20692;-72
2022/12/05 13:01:01;;;;;;;;;;;20.90;99.90;;;;;;5076403;28;19913;-73
2022/12/05 13:03:41;;;;;;;;;;;20.90;99.90;;;;;;5068828;28;20007;-72
2022/12/05 13:06:43;;;;;;;;;;;21.00;99.90;;;;;;5078136;28;19916;-74
2022/12/05 13:09:19;;;;;;;;;;;20.90;99.90;;;;;;5054066;28;19917;-73
2022/12/05 13:11:48;;;;;;;;;;;20.90;99.90;;;;;;5067290;28;19964;-74
2022/12/05 13:14:17;;;;;;;;;;;20.90;99.90;;;;;;5073292;28;19946;-73
2022/12/05 13:16:47;;;;;;;;;;;20.80;99.90;;;;;;5072953;28;20401;-73
2022/12/05 13:19:36;;;;;;;;;;;20.80;99.90;;;;;;5082078;28;19923;-74
2022/12/05 13:22:04;;;;;;;;;;;20.70;99.90;;;;;;5071610;28;19919;-74
2022/12/05 13:24:31;;;;;;;;;;;20.70;99.90;;;;;;5079414;28;19995;-73
2022/12/05 13:27:01;;;;;;;;;;;20.70;99.90;;;;;;5075689;28;19913;-74
2022/12/05 13:29:33;;;;;;;;;;;20.60;99.90;;;;;;5083346;28;20061;-75
2022/12/05 13:32:02;;;;;;;;;;;20.50;99.90;;;;;;5083534;28;20382;-73
2022/12/05 13:34:29;;;;;;;;;;;20.50;99.90;;;;;;5079081;28;19991;-74
2022/12/05 13:42:36;;;;;;;;;;;20.50;99.90;;;;;;5076805;28;19920;-73
2022/12/05 13:45:05;;;;;;;;;;;20.60;99.90;;;;;;5077599;28;19920;-74
2022/12/05 13:47:32;;;;;;;;;;;20.60;99.90;;;;;;5083399;28;19967;-74
2022/12/05 13:50:12;;;;;;;;;;;20.60;99.90;;;;;;5083567;28;19913;-73
2022/12/05 13:52:42;;;;;;;;;;;20.70;99.90;;;;;;5084481;28;20313;-74
2022/12/05 13:55:14;;;;;;;;;;;20.70;99.90;;;;;;5077717;28;19968;-73
2022/12/05 13:57:43;;;;;;;;;;;20.70;99.90;;;;;;5073751;28;19930;-73
2022/12/05 14:00:21;;;;;;;;;;;20.70;99.90;;;;;;5086256;28;19913;-73
2022/12/05 14:02:50;;;;;;;;;;;20.70;99.90;;;;;;5071207;28;20011;-74
2022/12/05 14:05:24;;;;;;;;;;;20.70;99.90;;;;;;5073669;28;19966;-73
2022/12/05 14:07:52;;;;;;;;;;;20.70;99.90;;;;;;5075494;28;19919;-73
2022/12/05 14:10:21;;;;;;;;;;;20.70;99.90;;;;;;5083453;28;19920;-73
2022/12/05 14:12:55;;;;;;;;;;;20.80;99.90;;;;;;5080337;28;19915;-73
2022/12/05 14:15:36;;;;;;;;;;;20.70;99.90;;;;;;5072992;28;19925;-74
2022/12/05 14:18:03;;;;;;;;;;;20.60;99.90;;;;;;5075811;28;19936;-74
2022/12/05 14:20:47;;;;;;;;;;;20.60;99.90;;;;;;5071827;28;19915;-74
2022/12/05 14:23:32;;;;;;;;;;;20.50;99.90;;;;;;5078057;28;19966;-74
2022/12/05 14:26:04;;;;;;;;;;;20.50;99.90;;;;;;5081014;28;19952;-74
2022/12/05 14:28:40;;;;;;;;;;;20.50;99.90;;;;;;5075333;28;19981;-73
2022/12/05 14:31:18;;;;;;;;;;;20.60;99.90;;;;;;5077379;28;19931;-75
2022/12/05 14:33:45;;;;;;;;;;;20.60;99.90;;;;;;5084174;28;19938;-73
2022/12/05 14:36:15;;;;;;;;;;;20.60;99.90;;;;;;5086423;28;20003;-74
2022/12/05 14:38:43;;;;;;;;;;;20.70;99.90;;;;;;5075100;28;20324;-73
2022/12/05 14:41:12;;;;;;;;;;;20.70;99.90;;;;;;5074293;28;19923;-74
2022/12/05 14:43:40;;;;;;;;;;;20.60;99.90;;;;;;5070444;28;19913;-73
2022/12/05 14:46:14;;;;;;;;;;;20.70;99.90;;;;;;5072326;28;19944;-73